Egmondgracht — PDWG — position and weather

sailwx.info

Track history (hours):
 
Tides and Currents Weather Stations Pressure Air Temp Water Temp Dewpoint Dewpoint Depression Visibility Wind Speed Wind Dir Waves Ship Positions

Egmondgracht

Last reported at 2015-Jul-30 22:10 UTC. Time now 2015-Aug-02 20:22 UTC.
Position N 43°23' W 002°05'.

Length 136 m; beam 19 m; draft 9 m.

Type: Cargo ship. MMSI: 245716000.

Date/timePositionNaut miles runAvg speedWind from/ knotsBaromVisibWave heightAir tempDewpointWater temp
2015-Jul-30 22:10N 43°23' W 002°05'711.1
2015-Jul-30 21:33N 43°21' W 001°56'2 0.1
2015-Jul-29 04:31N 43°19' W 001°55'13110.1
2015-Jul-28 15:31N 43°42' W 004°53'1111.8
2015-Jul-28 14:33N 43°43' W 005°09'1212.0
2015-Jul-28 13:33N 43°45' W 005°26'1212.2
2015-Jul-28 12:33N 43°46' W 005°42'1212.2
2015-Jul-28 11:33N 43°47' W 005°59'1212.1
2015-Jul-28 10:33N 43°48' W 006°16'32710.9
2015-Jul-27 04:33N 40°03' W 011°35'2512.5
2015-Jul-27 02:34N 39°41' W 011°50'1212.2
2015-Jul-27 01:33N 39°30' W 011°57'1212.3
2015-Jul-27 00:34N 39°19' W 012°04'1212.3
2015-Jul-26 23:33N 39°08' W 012°11'1312.4
2015-Jul-26 22:32N 38°57' W 012°19'1212.5
2015-Jul-26 21:33N 38°46' W 012°26'19913.1
2015-Jul-26 06:20N 35°49' W 014°20'1312.3
2015-Jul-26 05:14N 35°37' W 014°28'912.6
2015-Jul-26 04:33N 35°29' W 014°32'1312.8
2015-Jul-26 03:34N 35°18' W 014°39'1313.0
2015-Jul-26 02:33N 35°06' W 014°46'1613.0
2015-Jul-26 01:21N 34°52' W 014°53'1212.8
2015-Jul-26 00:23N 34°40' W 014°59'1113.0
2015-Jul-25 23:33N 34°31' W 015°05'1312.6
2015-Jul-25 22:33N 34°19' W 015°11'1412.6
2015-Jul-25 21:27N 34°07' W 015°19'1712.7
2015-Jul-25 20:08N 33°52' W 015°28'1012.9
2015-Jul-25 19:19N 33°42' W 015°33'5213.5
2015-Jul-25 15:28N 32°50' W 015°36'28913.0
2015-Jul-24 17:11N 28°04' W 014°56'711.9
2015-Jul-24 16:33N 27°57' W 014°59'1111.1
2015-Jul-24 15:33N 27°46' W 015°02'1212.0
2015-Jul-24 14:33N 27°36' W 014°55'1110.1
2015-Jul-24 13:28N 27°25' W 014°58'1010.6
2015-Jul-24 12:32N 27°17' W 015°04'  
Track history (hours):
 
Tides and Currents Weather Stations Pressure Air Temp Water Temp Dewpoint Dewpoint Depression Visibility Wind Speed Wind Dir Waves Ship Positions

Egmondgracht

Last reported at 2015-Jul-30 22:10 UTC. Time now 2015-Aug-02 20:22 UTC.
Position N 43°23' W 002°05'.

Length 136 m; beam 19 m; draft 9 m.

Type: Cargo ship. MMSI: 245716000.

Date/timePositionNaut miles runAvg speedWind from/ knotsBaromVisibWave heightAir tempDewpointWater temp
2015-Jul-30 22:10N 43°23' W 002°05'711.1
2015-Jul-30 21:33N 43°21' W 001°56'2 0.1
2015-Jul-29 04:31N 43°19' W 001°55'13110.1
2015-Jul-28 15:31N 43°42' W 004°53'1111.8
2015-Jul-28 14:33N 43°43' W 005°09'1212.0
2015-Jul-28 13:33N 43°45' W 005°26'1212.2
2015-Jul-28 12:33N 43°46' W 005°42'1212.2
2015-Jul-28 11:33N 43°47' W 005°59'1212.1
2015-Jul-28 10:33N 43°48' W 006°16'32710.9
2015-Jul-27 04:33N 40°03' W 011°35'2512.5
2015-Jul-27 02:34N 39°41' W 011°50'1212.2
2015-Jul-27 01:33N 39°30' W 011°57'1212.3
2015-Jul-27 00:34N 39°19' W 012°04'1212.3
2015-Jul-26 23:33N 39°08' W 012°11'1312.4
2015-Jul-26 22:32N 38°57' W 012°19'1212.5
2015-Jul-26 21:33N 38°46' W 012°26'19913.1
2015-Jul-26 06:20N 35°49' W 014°20'1312.3
2015-Jul-26 05:14N 35°37' W 014°28'912.6
2015-Jul-26 04:33N 35°29' W 014°32'1312.8
2015-Jul-26 03:34N 35°18' W 014°39'1313.0
2015-Jul-26 02:33N 35°06' W 014°46'1613.0
2015-Jul-26 01:21N 34°52' W 014°53'1212.8
2015-Jul-26 00:23N 34°40' W 014°59'1113.0
2015-Jul-25 23:33N 34°31' W 015°05'1312.6
2015-Jul-25 22:33N 34°19' W 015°11'1412.6
2015-Jul-25 21:27N 34°07' W 015°19'1712.7
2015-Jul-25 20:08N 33°52' W 015°28'1012.9
2015-Jul-25 19:19N 33°42' W 015°33'5213.5
2015-Jul-25 15:28N 32°50' W 015°36'28913.0
2015-Jul-24 17:11N 28°04' W 014°56'711.9
2015-Jul-24 16:33N 27°57' W 014°59'1111.1
2015-Jul-24 15:33N 27°46' W 015°02'1212.0
2015-Jul-24 14:33N 27°36' W 014°55'1110.1
2015-Jul-24 13:28N 27°25' W 014°58'1010.6
2015-Jul-24 12:32N 27°17' W 015°04'  

Dump ship's entire track history